sensor_id;sensor_type;location;lat;lon;timestamp;P1;durP1;ratioP1;P2;durP2;ratioP2
21941;SDS011;11135;54.192;15.670;2023-04-25T00:01:49;3.65;;;2.45;;
21941;SDS011;11135;54.192;15.670;2023-04-25T00:04:54;3.92;;;1.80;;
21941;SDS011;11135;54.192;15.670;2023-04-25T00:08:00;4.65;;;3.17;;
21941;SDS011;11135;54.192;15.670;2023-04-25T00:11:08;3.50;;;2.10;;
21941;SDS011;11135;54.192;15.670;2023-04-25T00:14:13;2.75;;;1.88;;
21941;SDS011;11135;54.192;15.670;2023-04-25T00:17:18;4.32;;;2.25;;
21941;SDS011;11135;54.192;15.670;2023-04-25T00:20:24;4.32;;;2.30;;
21941;SDS011;11135;54.192;15.670;2023-04-25T00:23:30;3.47;;;2.10;;
21941;SDS011;11135;54.192;15.670;2023-04-25T00:26:40;4.30;;;2.28;;
21941;SDS011;11135;54.192;15.670;2023-04-25T00:29:45;4.75;;;2.40;;
21941;SDS011;11135;54.192;15.670;2023-04-25T00:32:50;3.22;;;1.95;;
21941;SDS011;11135;54.192;15.670;2023-04-25T00:35:55;2.85;;;1.55;;
21941;SDS011;11135;54.192;15.670;2023-04-25T00:39:01;4.40;;;2.50;;
21941;SDS011;11135;54.192;15.670;2023-04-25T00:42:09;4.28;;;2.03;;
21941;SDS011;11135;54.192;15.670;2023-04-25T00:45:14;3.58;;;1.83;;
21941;SDS011;11135;54.192;15.670;2023-04-25T00:48:20;3.72;;;2.45;;
21941;SDS011;11135;54.192;15.670;2023-04-25T00:51:26;2.78;;;1.85;;
21941;SDS011;11135;54.192;15.670;2023-04-25T00:54:31;3.40;;;2.00;;
21941;SDS011;11135;54.192;15.670;2023-04-25T00:57:39;4.30;;;2.05;;
21941;SDS011;11135;54.192;15.670;2023-04-25T01:00:45;4.47;;;1.92;;
21941;SDS011;11135;54.192;15.670;2023-04-25T01:03:52;3.80;;;1.65;;
21941;SDS011;11135;54.192;15.670;2023-04-25T01:06:58;4.40;;;3.35;;
21941;SDS011;11135;54.192;15.670;2023-04-25T01:10:05;4.93;;;2.10;;
21941;SDS011;11135;54.192;15.670;2023-04-25T01:13:13;5.05;;;2.47;;
21941;SDS011;11135;54.192;15.670;2023-04-25T01:16:19;5.18;;;2.10;;
21941;SDS011;11135;54.192;15.670;2023-04-25T01:19:25;4.70;;;2.22;;
21941;SDS011;11135;54.192;15.670;2023-04-25T01:22:33;6.72;;;2.92;;
21941;SDS011;11135;54.192;15.670;2023-04-25T01:25:39;4.53;;;2.53;;
21941;SDS011;11135;54.192;15.670;2023-04-25T01:28:45;4.35;;;2.50;;
21941;SDS011;11135;54.192;15.670;2023-04-25T01:31:50;4.10;;;2.13;;
21941;SDS011;11135;54.192;15.670;2023-04-25T01:34:56;3.90;;;2.60;;
21941;SDS011;11135;54.192;15.670;2023-04-25T01:38:03;4.55;;;2.90;;
21941;SDS011;11135;54.192;15.670;2023-04-25T01:41:09;3.78;;;2.10;;
21941;SDS011;11135;54.192;15.670;2023-04-25T01:44:14;5.15;;;2.10;;
21941;SDS011;11135;54.192;15.670;2023-04-25T01:47:20;6.20;;;2.67;;
21941;SDS011;11135;54.192;15.670;2023-04-25T01:50:25;3.78;;;2.45;;
21941;SDS011;11135;54.192;15.670;2023-04-25T01:53:34;5.32;;;2.17;;
21941;SDS011;11135;54.192;15.670;2023-04-25T01:56:40;5.50;;;2.67;;
21941;SDS011;11135;54.192;15.670;2023-04-25T01:59:45;4.05;;;2.45;;
21941;SDS011;11135;54.192;15.670;2023-04-25T02:02:51;3.30;;;2.13;;
21941;SDS011;11135;54.192;15.670;2023-04-25T02:05:56;5.82;;;2.72;;
21941;SDS011;11135;54.192;15.670;2023-04-25T02:09:04;5.07;;;2.80;;
21941;SDS011;11135;54.192;15.670;2023-04-25T02:12:09;4.43;;;2.55;;
21941;SDS011;11135;54.192;15.670;2023-04-25T02:15:14;4.60;;;2.97;;
21941;SDS011;11135;54.192;15.670;2023-04-25T02:18:22;3.88;;;2.55;;
21941;SDS011;11135;54.192;15.670;2023-04-25T02:21:28;5.65;;;2.90;;
21941;SDS011;11135;54.192;15.670;2023-04-25T02:24:36;4.47;;;3.00;;
21941;SDS011;11135;54.192;15.670;2023-04-25T02:27:41;5.93;;;2.53;;
21941;SDS011;11135;54.192;15.670;2023-04-25T02:30:46;5.55;;;3.20;;
21941;SDS011;11135;54.192;15.670;2023-04-25T02:33:51;4.70;;;3.33;;
21941;SDS011;11135;54.192;15.670;2023-04-25T02:36:57;4.82;;;2.70;;
21941;SDS011;11135;54.192;15.670;2023-04-25T02:40:05;5.25;;;2.40;;
21941;SDS011;11135;54.192;15.670;2023-04-25T02:43:10;5.82;;;3.20;;
21941;SDS011;11135;54.192;15.670;2023-04-25T02:46:15;4.22;;;2.90;;
21941;SDS011;11135;54.192;15.670;2023-04-25T02:49:39;6.53;;;2.85;;
21941;SDS011;11135;54.192;15.670;2023-04-25T02:52:46;4.50;;;2.72;;
21941;SDS011;11135;54.192;15.670;2023-04-25T02:55:54;3.67;;;2.47;;
21941;SDS011;11135;54.192;15.670;2023-04-25T02:59:02;6.68;;;2.90;;
21941;SDS011;11135;54.192;15.670;2023-04-25T03:02:08;3.95;;;2.78;;
21941;SDS011;11135;54.192;15.670;2023-04-25T03:05:13;4.78;;;2.67;;
21941;SDS011;11135;54.192;15.670;2023-04-25T03:08:18;4.50;;;2.50;;
21941;SDS011;11135;54.192;15.670;2023-04-25T03:11:27;4.45;;;3.00;;
21941;SDS011;11135;54.192;15.670;2023-04-25T03:14:32;4.38;;;2.55;;
21941;SDS011;11135;54.192;15.670;2023-04-25T03:17:37;4.10;;;2.58;;
21941;SDS011;11135;54.192;15.670;2023-04-25T03:20:43;4.60;;;2.63;;
21941;SDS011;11135;54.192;15.670;2023-04-25T03:23:48;5.60;;;3.22;;
21941;SDS011;11135;54.192;15.670;2023-04-25T03:26:56;4.15;;;2.40;;
21941;SDS011;11135;54.192;15.670;2023-04-25T03:30:02;4.93;;;2.58;;
21941;SDS011;11135;54.192;15.670;2023-04-25T03:33:08;3.25;;;2.33;;
21941;SDS011;11135;54.192;15.670;2023-04-25T03:36:13;4.10;;;2.75;;
21941;SDS011;11135;54.192;15.670;2023-04-25T03:39:22;6.63;;;2.90;;
21941;SDS011;11135;54.192;15.670;2023-04-25T03:42:33;3.90;;;2.50;;
21941;SDS011;11135;54.192;15.670;2023-04-25T03:45:38;4.95;;;2.78;;
21941;SDS011;11135;54.192;15.670;2023-04-25T03:48:43;5.35;;;3.00;;
21941;SDS011;11135;54.192;15.670;2023-04-25T03:51:49;4.32;;;2.25;;
21941;SDS011;11135;54.192;15.670;2023-04-25T03:54:54;4.38;;;2.92;;
21941;SDS011;11135;54.192;15.670;2023-04-25T03:58:03;6.00;;;3.05;;
21941;SDS011;11135;54.192;15.670;2023-04-25T04:01:08;6.05;;;2.95;;
21941;SDS011;11135;54.192;15.670;2023-04-25T04:04:13;4.55;;;3.15;;
21941;SDS011;11135;54.192;15.670;2023-04-25T04:07:18;4.47;;;2.97;;
21941;SDS011;11135;54.192;15.670;2023-04-25T04:10:24;5.18;;;2.92;;
21941;SDS011;11135;54.192;15.670;2023-04-25T04:13:32;4.45;;;2.33;;
21941;SDS011;11135;54.192;15.670;2023-04-25T04:16:37;6.18;;;2.80;;
21941;SDS011;11135;54.192;15.670;2023-04-25T04:19:42;6.00;;;2.60;;
21941;SDS011;11135;54.192;15.670;2023-04-25T04:22:48;5.43;;;2.78;;
21941;SDS011;11135;54.192;15.670;2023-04-25T04:25:53;6.05;;;2.72;;
21941;SDS011;11135;54.192;15.670;2023-04-25T04:29:01;3.90;;;2.58;;
21941;SDS011;11135;54.192;15.670;2023-04-25T04:32:07;4.18;;;3.13;;
21941;SDS011;11135;54.192;15.670;2023-04-25T04:35:13;10.60;;;3.60;;
21941;SDS011;11135;54.192;15.670;2023-04-25T04:38:21;7.28;;;2.80;;
21941;SDS011;11135;54.192;15.670;2023-04-25T04:41:27;7.80;;;3.05;;
21941;SDS011;11135;54.192;15.670;2023-04-25T04:44:35;4.20;;;2.78;;
21941;SDS011;11135;54.192;15.670;2023-04-25T04:47:41;6.53;;;2.90;;
21941;SDS011;11135;54.192;15.670;2023-04-25T04:50:47;6.82;;;2.60;;
21941;SDS011;11135;54.192;15.670;2023-04-25T04:53:53;9.55;;;3.42;;
21941;SDS011;11135;54.192;15.670;2023-04-25T04:57:00;5.32;;;3.03;;
21941;SDS011;11135;54.192;15.670;2023-04-25T05:00:09;4.90;;;3.08;;
21941;SDS011;11135;54.192;15.670;2023-04-25T05:03:14;6.60;;;3.13;;
21941;SDS011;11135;54.192;15.670;2023-04-25T05:06:20;4.65;;;2.35;;
21941;SDS011;11135;54.192;15.670;2023-04-25T05:09:27;6.07;;;3.78;;
21941;SDS011;11135;54.192;15.670;2023-04-25T05:12:33;4.43;;;2.83;;
21941;SDS011;11135;54.192;15.670;2023-04-25T05:15:40;5.80;;;3.25;;
21941;SDS011;11135;54.192;15.670;2023-04-25T05:18:48;5.20;;;3.38;;
21941;SDS011;11135;54.192;15.670;2023-04-25T05:21:53;6.72;;;3.60;;
21941;SDS011;11135;54.192;15.670;2023-04-25T05:24:58;6.10;;;3.53;;
21941;SDS011;11135;54.192;15.670;2023-04-25T05:28:04;5.13;;;3.38;;
21941;SDS011;11135;54.192;15.670;2023-04-25T05:31:12;7.28;;;3.58;;
21941;SDS011;11135;54.192;15.670;2023-04-25T05:34:17;6.53;;;3.38;;
21941;SDS011;11135;54.192;15.670;2023-04-25T05:37:25;5.10;;;3.53;;
21941;SDS011;11135;54.192;15.670;2023-04-25T05:40:32;8.25;;;4.20;;
21941;SDS011;11135;54.192;15.670;2023-04-25T05:43:37;5.40;;;3.40;;
21941;SDS011;11135;54.192;15.670;2023-04-25T05:46:49;6.03;;;3.83;;
21941;SDS011;11135;54.192;15.670;2023-04-25T05:49:55;7.07;;;3.53;;
21941;SDS011;11135;54.192;15.670;2023-04-25T05:53:02;6.10;;;3.95;;
21941;SDS011;11135;54.192;15.670;2023-04-25T05:56:08;6.75;;;3.95;;
21941;SDS011;11135;54.192;15.670;2023-04-25T05:59:13;8.57;;;4.50;;
21941;SDS011;11135;54.192;15.670;2023-04-25T06:02:21;16.02;;;4.38;;
21941;SDS011;11135;54.192;15.670;2023-04-25T06:05:26;8.02;;;4.22;;
21941;SDS011;11135;54.192;15.670;2023-04-25T06:08:32;6.53;;;3.72;;
21941;SDS011;11135;54.192;15.670;2023-04-25T06:11:37;6.47;;;3.92;;
21941;SDS011;11135;54.192;15.670;2023-04-25T06:14:43;7.60;;;3.97;;
21941;SDS011;11135;54.192;15.670;2023-04-25T06:17:50;8.13;;;3.80;;
21941;SDS011;11135;54.192;15.670;2023-04-25T06:21:03;10.60;;;4.60;;
21941;SDS011;11135;54.192;15.670;2023-04-25T06:24:08;6.35;;;4.25;;
21941;SDS011;11135;54.192;15.670;2023-04-25T06:27:14;8.07;;;4.10;;
21941;SDS011;11135;54.192;15.670;2023-04-25T06:30:19;6.25;;;3.50;;
21941;SDS011;11135;54.192;15.670;2023-04-25T06:33:29;7.00;;;4.20;;
21941;SDS011;11135;54.192;15.670;2023-04-25T06:36:34;9.05;;;4.00;;
21941;SDS011;11135;54.192;15.670;2023-04-25T06:39:40;5.25;;;3.53;;
21941;SDS011;11135;54.192;15.670;2023-04-25T06:42:45;9.05;;;4.05;;
21941;SDS011;11135;54.192;15.670;2023-04-25T06:45:50;8.13;;;4.22;;
21941;SDS011;11135;54.192;15.670;2023-04-25T06:48:58;6.65;;;3.58;;
21941;SDS011;11135;54.192;15.670;2023-04-25T06:52:03;6.15;;;3.72;;
21941;SDS011;11135;54.192;15.670;2023-04-25T06:55:09;9.13;;;3.63;;
21941;SDS011;11135;54.192;15.670;2023-04-25T06:58:14;6.68;;;2.95;;
21941;SDS011;11135;54.192;15.670;2023-04-25T07:01:19;5.40;;;3.30;;
21941;SDS011;11135;54.192;15.670;2023-04-25T07:04:27;4.65;;;2.88;;
21941;SDS011;11135;54.192;15.670;2023-04-25T07:07:32;6.80;;;2.90;;
21941;SDS011;11135;54.192;15.670;2023-04-25T07:10:38;8.43;;;2.00;;
21941;SDS011;11135;54.192;15.670;2023-04-25T07:13:43;5.85;;;3.38;;
21941;SDS011;11135;54.192;15.670;2023-04-25T07:16:50;6.43;;;2.28;;
21941;SDS011;11135;54.192;15.670;2023-04-25T07:19:58;7.20;;;3.03;;
21941;SDS011;11135;54.192;15.670;2023-04-25T07:23:03;6.43;;;2.33;;
21941;SDS011;11135;54.192;15.670;2023-04-25T07:26:08;5.78;;;1.98;;
21941;SDS011;11135;54.192;15.670;2023-04-25T07:29:14;3.63;;;2.10;;
21941;SDS011;11135;54.192;15.670;2023-04-25T07:32:19;4.30;;;2.08;;
21941;SDS011;11135;54.192;15.670;2023-04-25T07:35:27;5.05;;;1.95;;
21941;SDS011;11135;54.192;15.670;2023-04-25T07:38:33;7.15;;;2.25;;
21941;SDS011;11135;54.192;15.670;2023-04-25T07:41:45;4.65;;;2.30;;
21941;SDS011;11135;54.192;15.670;2023-04-25T07:44:53;7.13;;;2.15;;
21941;SDS011;11135;54.192;15.670;2023-04-25T07:48:01;7.03;;;2.33;;
21941;SDS011;11135;54.192;15.670;2023-04-25T07:51:12;7.63;;;2.33;;
21941;SDS011;11135;54.192;15.670;2023-04-25T07:54:17;5.88;;;1.73;;
21941;SDS011;11135;54.192;15.670;2023-04-25T07:57:22;4.82;;;2.00;;
21941;SDS011;11135;54.192;15.670;2023-04-25T08:00:28;6.40;;;2.00;;
21941;SDS011;11135;54.192;15.670;2023-04-25T08:03:34;5.25;;;2.40;;
21941;SDS011;11135;54.192;15.670;2023-04-25T08:06:42;7.60;;;2.50;;
21941;SDS011;11135;54.192;15.670;2023-04-25T08:09:52;4.85;;;1.63;;
21941;SDS011;11135;54.192;15.670;2023-04-25T08:12:58;7.55;;;2.20;;
21941;SDS011;11135;54.192;15.670;2023-04-25T08:16:03;10.98;;;2.25;;
21941;SDS011;11135;54.192;15.670;2023-04-25T08:19:09;5.05;;;2.10;;
21941;SDS011;11135;54.192;15.670;2023-04-25T08:22:17;7.35;;;2.47;;
21941;SDS011;11135;54.192;15.670;2023-04-25T08:25:22;6.07;;;1.80;;
21941;SDS011;11135;54.192;15.670;2023-04-25T08:28:30;4.75;;;1.95;;
21941;SDS011;11135;54.192;15.670;2023-04-25T08:31:37;5.43;;;2.15;;
21941;SDS011;11135;54.192;15.670;2023-04-25T08:34:49;6.07;;;3.50;;
21941;SDS011;11135;54.192;15.670;2023-04-25T08:37:59;4.85;;;2.45;;
21941;SDS011;11135;54.192;15.670;2023-04-25T08:41:07;5.35;;;2.78;;
21941;SDS011;11135;54.192;15.670;2023-04-25T08:44:25;8.95;;;2.67;;
21941;SDS011;11135;54.192;15.670;2023-04-25T08:47:30;5.85;;;2.75;;
21941;SDS011;11135;54.192;15.670;2023-04-25T08:50:38;9.15;;;2.50;;
21941;SDS011;11135;54.192;15.670;2023-04-25T08:53:47;6.40;;;3.08;;
21941;SDS011;11135;54.192;15.670;2023-04-25T08:56:59;6.20;;;2.78;;
21941;SDS011;11135;54.192;15.670;2023-04-25T09:00:07;5.00;;;2.38;;
21941;SDS011;11135;54.192;15.670;2023-04-25T09:03:13;7.20;;;2.38;;
21941;SDS011;11135;54.192;15.670;2023-04-25T09:06:21;5.88;;;2.20;;
21941;SDS011;11135;54.192;15.670;2023-04-25T09:09:32;6.13;;;2.83;;
21941;SDS011;11135;54.192;15.670;2023-04-25T09:12:38;5.70;;;3.10;;
21941;SDS011;11135;54.192;15.670;2023-04-25T09:15:48;8.23;;;2.60;;
21941;SDS011;11135;54.192;15.670;2023-04-25T09:18:56;7.95;;;2.13;;
21941;SDS011;11135;54.192;15.670;2023-04-25T09:22:02;7.32;;;2.65;;
21941;SDS011;11135;54.192;15.670;2023-04-25T09:25:11;6.05;;;2.20;;
21941;SDS011;11135;54.192;15.670;2023-04-25T09:28:16;5.28;;;2.67;;
21941;SDS011;11135;54.192;15.670;2023-04-25T09:31:31;10.15;;;2.90;;
21941;SDS011;11135;54.192;15.670;2023-04-25T09:34:40;8.07;;;3.10;;
21941;SDS011;11135;54.192;15.670;2023-04-25T09:37:46;10.18;;;2.47;;
21941;SDS011;11135;54.192;15.670;2023-04-25T09:40:58;7.80;;;3.22;;
21941;SDS011;11135;54.192;15.670;2023-04-25T09:44:03;6.18;;;2.42;;
21941;SDS011;11135;54.192;15.670;2023-04-25T09:47:09;9.77;;;2.33;;
21941;SDS011;11135;54.192;15.670;2023-04-25T09:50:17;8.70;;;2.63;;
21941;SDS011;11135;54.192;15.670;2023-04-25T09:56:42;6.70;;;2.20;;
21941;SDS011;11135;54.192;15.670;2023-04-25T09:59:50;11.25;;;2.88;;
21941;SDS011;11135;54.192;15.670;2023-04-25T10:02:57;6.47;;;2.25;;
21941;SDS011;11135;54.192;15.670;2023-04-25T10:06:08;8.07;;;2.30;;
21941;SDS011;11135;54.192;15.670;2023-04-25T10:12:29;8.05;;;2.78;;
21941;SDS011;11135;54.192;15.670;2023-04-25T10:18:55;8.95;;;3.00;;
21941;SDS011;11135;54.192;15.670;2023-04-25T10:25:24;8.63;;;3.07;;
21941;SDS011;11135;54.192;15.670;2023-04-25T10:35:04;8.77;;;2.80;;
21941;SDS011;11135;54.192;15.670;2023-04-25T10:38:17;8.35;;;3.00;;
21941;SDS011;11135;54.192;15.670;2023-04-25T10:41:23;14.75;;;4.30;;
21941;SDS011;11135;54.192;15.670;2023-04-25T10:44:31;17.20;;;2.83;;
21941;SDS011;11135;54.192;15.670;2023-04-25T10:47:43;9.13;;;2.75;;
21941;SDS011;11135;54.192;15.670;2023-04-25T10:50:53;8.43;;;2.92;;
21941;SDS011;11135;54.192;15.670;2023-04-25T10:54:09;7.60;;;2.70;;
21941;SDS011;11135;54.192;15.670;2023-04-25T10:57:30;7.97;;;2.55;;
21941;SDS011;11135;54.192;15.670;2023-04-25T11:03:58;13.73;;;3.33;;
21941;SDS011;11135;54.192;15.670;2023-04-25T11:07:07;9.65;;;2.72;;
21941;SDS011;11135;54.192;15.670;2023-04-25T11:10:18;7.45;;;2.60;;
21941;SDS011;11135;54.192;15.670;2023-04-25T11:16:42;9.90;;;2.50;;
21941;SDS011;11135;54.192;15.670;2023-04-25T11:19:50;10.15;;;2.03;;
21941;SDS011;11135;54.192;15.670;2023-04-25T11:22:59;6.65;;;2.70;;
21941;SDS011;11135;54.192;15.670;2023-04-25T11:26:07;8.15;;;2.17;;
21941;SDS011;11135;54.192;15.670;2023-04-25T11:35:42;6.20;;;2.17;;
21941;SDS011;11135;54.192;15.670;2023-04-25T11:38:54;10.07;;;2.67;;
21941;SDS011;11135;54.192;15.670;2023-04-25T11:42:03;9.37;;;2.40;;
21941;SDS011;11135;54.192;15.670;2023-04-25T11:45:14;11.15;;;2.97;;
21941;SDS011;11135;54.192;15.670;2023-04-25T11:48:20;9.40;;;2.95;;
21941;SDS011;11135;54.192;15.670;2023-04-25T11:54:41;10.63;;;2.83;;
21941;SDS011;11135;54.192;15.670;2023-04-25T11:57:48;8.88;;;2.40;;
21941;SDS011;11135;54.192;15.670;2023-04-25T12:00:55;8.68;;;2.45;;
21941;SDS011;11135;54.192;15.670;2023-04-25T12:07:11;7.68;;;2.30;;
21941;SDS011;11135;54.192;15.670;2023-04-25T12:10:27;9.05;;;2.58;;
21941;SDS011;11135;54.192;15.670;2023-04-25T12:16:51;10.38;;;3.45;;
21941;SDS011;11135;54.192;15.670;2023-04-25T12:19:56;7.93;;;2.45;;
21941;SDS011;11135;54.192;15.670;2023-04-25T12:23:05;7.13;;;2.22;;
21941;SDS011;11135;54.192;15.670;2023-04-25T12:26:17;9.70;;;3.15;;
21941;SDS011;11135;54.192;15.670;2023-04-25T12:32:42;8.02;;;2.45;;
21941;SDS011;11135;54.192;15.670;2023-04-25T12:35:47;6.97;;;2.50;;
21941;SDS011;11135;54.192;15.670;2023-04-25T12:38:52;10.75;;;3.08;;
21941;SDS011;11135;54.192;15.670;2023-04-25T12:42:01;8.70;;;3.08;;
21941;SDS011;11135;54.192;15.670;2023-04-25T12:45:10;7.28;;;2.00;;
21941;SDS011;11135;54.192;15.670;2023-04-25T12:48:15;6.95;;;2.15;;
21941;SDS011;11135;54.192;15.670;2023-04-25T12:54:53;7.75;;;2.30;;
21941;SDS011;11135;54.192;15.670;2023-04-25T12:58:06;7.28;;;2.10;;
21941;SDS011;11135;54.192;15.670;2023-04-25T13:01:12;7.13;;;2.08;;
21941;SDS011;11135;54.192;15.670;2023-04-25T13:04:22;10.48;;;2.78;;
21941;SDS011;11135;54.192;15.670;2023-04-25T13:07:28;9.13;;;2.38;;
21941;SDS011;11135;54.192;15.670;2023-04-25T13:10:36;9.02;;;3.65;;
21941;SDS011;11135;54.192;15.670;2023-04-25T13:13:45;8.15;;;3.10;;
21941;SDS011;11135;54.192;15.670;2023-04-25T13:16:51;11.90;;;2.63;;
21941;SDS011;11135;54.192;15.670;2023-04-25T13:20:00;7.68;;;2.30;;
21941;SDS011;11135;54.192;15.670;2023-04-25T13:23:08;9.65;;;2.55;;
21941;SDS011;11135;54.192;15.670;2023-04-25T13:26:35;9.68;;;2.63;;
21941;SDS011;11135;54.192;15.670;2023-04-25T13:29:43;10.45;;;2.63;;
21941;SDS011;11135;54.192;15.670;2023-04-25T13:32:53;8.23;;;2.78;;
21941;SDS011;11135;54.192;15.670;2023-04-25T13:36:00;11.45;;;2.35;;
21941;SDS011;11135;54.192;15.670;2023-04-25T13:39:05;5.75;;;1.92;;
21941;SDS011;11135;54.192;15.670;2023-04-25T13:42:11;8.05;;;2.50;;
21941;SDS011;11135;54.192;15.670;2023-04-25T13:45:20;10.57;;;2.55;;
21941;SDS011;11135;54.192;15.670;2023-04-25T13:48:26;11.32;;;2.20;;
21941;SDS011;11135;54.192;15.670;2023-04-25T13:51:32;7.95;;;2.50;;
21941;SDS011;11135;54.192;15.670;2023-04-25T13:54:38;12.27;;;2.85;;
21941;SDS011;11135;54.192;15.670;2023-04-25T13:57:44;9.02;;;2.10;;
21941;SDS011;11135;54.192;15.670;2023-04-25T14:00:58;9.40;;;2.33;;
21941;SDS011;11135;54.192;15.670;2023-04-25T14:04:07;14.38;;;2.85;;
21941;SDS011;11135;54.192;15.670;2023-04-25T14:07:16;8.70;;;2.42;;
21941;SDS011;11135;54.192;15.670;2023-04-25T14:10:24;5.85;;;1.90;;
21941;SDS011;11135;54.192;15.670;2023-04-25T14:13:33;7.70;;;1.95;;
21941;SDS011;11135;54.192;15.670;2023-04-25T14:16:41;7.75;;;2.03;;
21941;SDS011;11135;54.192;15.670;2023-04-25T14:19:50;8.68;;;2.67;;
21941;SDS011;11135;54.192;15.670;2023-04-25T14:22:55;9.07;;;2.10;;
21941;SDS011;11135;54.192;15.670;2023-04-25T14:26:02;5.90;;;1.70;;
21941;SDS011;11135;54.192;15.670;2023-04-25T14:29:09;8.38;;;3.03;;
21941;SDS011;11135;54.192;15.670;2023-04-25T14:32:17;7.93;;;3.60;;
21941;SDS011;11135;54.192;15.670;2023-04-25T14:35:23;9.63;;;2.47;;
21941;SDS011;11135;54.192;15.670;2023-04-25T14:38:29;9.40;;;2.25;;
21941;SDS011;11135;54.192;15.670;2023-04-25T14:41:36;8.68;;;2.45;;
21941;SDS011;11135;54.192;15.670;2023-04-25T14:44:43;8.30;;;2.45;;
21941;SDS011;11135;54.192;15.670;2023-04-25T14:47:54;13.10;;;2.78;;
21941;SDS011;11135;54.192;15.670;2023-04-25T14:50:59;10.23;;;2.42;;
21941;SDS011;11135;54.192;15.670;2023-04-25T14:57:23;5.93;;;2.28;;
21941;SDS011;11135;54.192;15.670;2023-04-25T15:00:29;12.57;;;2.85;;
21941;SDS011;11135;54.192;15.670;2023-04-25T15:03:37;7.60;;;2.40;;
21941;SDS011;11135;54.192;15.670;2023-04-25T15:06:43;6.82;;;2.13;;
21941;SDS011;11135;54.192;15.670;2023-04-25T15:09:49;7.30;;;2.15;;
21941;SDS011;11135;54.192;15.670;2023-04-25T15:12:55;11.15;;;2.22;;
21941;SDS011;11135;54.192;15.670;2023-04-25T15:16:00;6.07;;;1.55;;
21941;SDS011;11135;54.192;15.670;2023-04-25T15:19:11;10.45;;;2.80;;
21941;SDS011;11135;54.192;15.670;2023-04-25T15:22:17;5.45;;;1.50;;
21941;SDS011;11135;54.192;15.670;2023-04-25T15:25:28;6.55;;;1.30;;
21941;SDS011;11135;54.192;15.670;2023-04-25T15:28:38;8.93;;;2.20;;
21941;SDS011;11135;54.192;15.670;2023-04-25T15:32:13;13.13;;;2.70;;
21941;SDS011;11135;54.192;15.670;2023-04-25T15:35:23;7.78;;;2.28;;
21941;SDS011;11135;54.192;15.670;2023-04-25T15:38:29;9.48;;;2.40;;
21941;SDS011;11135;54.192;15.670;2023-04-25T15:41:41;5.45;;;1.58;;
21941;SDS011;11135;54.192;15.670;2023-04-25T15:44:57;6.28;;;2.17;;
21941;SDS011;11135;54.192;15.670;2023-04-25T15:48:03;6.53;;;1.85;;
21941;SDS011;11135;54.192;15.670;2023-04-25T15:51:13;9.05;;;2.38;;
21941;SDS011;11135;54.192;15.670;2023-04-25T15:54:19;6.47;;;2.13;;
21941;SDS011;11135;54.192;15.670;2023-04-25T15:57:25;12.55;;;2.13;;
21941;SDS011;11135;54.192;15.670;2023-04-25T16:00:35;4.22;;;1.60;;
21941;SDS011;11135;54.192;15.670;2023-04-25T16:03:46;9.77;;;3.15;;
21941;SDS011;11135;54.192;15.670;2023-04-25T16:06:59;7.05;;;2.40;;
21941;SDS011;11135;54.192;15.670;2023-04-25T16:10:08;8.48;;;2.22;;
21941;SDS011;11135;54.192;15.670;2023-04-25T16:13:13;5.85;;;1.40;;
21941;SDS011;11135;54.192;15.670;2023-04-25T16:16:19;6.28;;;2.05;;
21941;SDS011;11135;54.192;15.670;2023-04-25T16:19:26;9.45;;;1.95;;
21941;SDS011;11135;54.192;15.670;2023-04-25T16:22:37;9.07;;;2.13;;
21941;SDS011;11135;54.192;15.670;2023-04-25T16:25:42;7.18;;;1.77;;
21941;SDS011;11135;54.192;15.670;2023-04-25T16:28:52;6.35;;;1.92;;
21941;SDS011;11135;54.192;15.670;2023-04-25T16:31:57;8.05;;;2.00;;
21941;SDS011;11135;54.192;15.670;2023-04-25T16:35:09;3.90;;;2.13;;
21941;SDS011;11135;54.192;15.670;2023-04-25T16:38:17;8.57;;;2.10;;
21941;SDS011;11135;54.192;15.670;2023-04-25T16:41:28;12.50;;;2.42;;
21941;SDS011;11135;54.192;15.670;2023-04-25T16:44:36;6.55;;;1.83;;
21941;SDS011;11135;54.192;15.670;2023-04-25T16:47:43;5.18;;;1.80;;
21941;SDS011;11135;54.192;15.670;2023-04-25T16:50:48;8.10;;;1.90;;
21941;SDS011;11135;54.192;15.670;2023-04-25T16:53:56;5.70;;;1.65;;
21941;SDS011;11135;54.192;15.670;2023-04-25T16:57:02;5.88;;;1.75;;
21941;SDS011;11135;54.192;15.670;2023-04-25T17:00:12;7.20;;;1.60;;
21941;SDS011;11135;54.192;15.670;2023-04-25T17:03:19;6.13;;;1.60;;
21941;SDS011;11135;54.192;15.670;2023-04-25T17:06:27;7.72;;;2.35;;
21941;SDS011;11135;54.192;15.670;2023-04-25T17:09:41;9.77;;;2.45;;
21941;SDS011;11135;54.192;15.670;2023-04-25T17:12:49;4.53;;;1.80;;
21941;SDS011;11135;54.192;15.670;2023-04-25T17:15:55;5.68;;;1.60;;
21941;SDS011;11135;54.192;15.670;2023-04-25T17:19:01;11.00;;;2.08;;
21941;SDS011;11135;54.192;15.670;2023-04-25T17:22:07;6.32;;;1.40;;
21941;SDS011;11135;54.192;15.670;2023-04-25T17:25:16;6.53;;;1.55;;
21941;SDS011;11135;54.192;15.670;2023-04-25T17:28:21;6.47;;;2.17;;
21941;SDS011;11135;54.192;15.670;2023-04-25T17:31:27;9.80;;;2.28;;
21941;SDS011;11135;54.192;15.670;2023-04-25T17:34:39;4.35;;;1.13;;
21941;SDS011;11135;54.192;15.670;2023-04-25T17:37:58;10.02;;;1.90;;
21941;SDS011;11135;54.192;15.670;2023-04-25T17:41:07;6.65;;;2.03;;
21941;SDS011;11135;54.192;15.670;2023-04-25T17:44:14;5.53;;;1.45;;
21941;SDS011;11135;54.192;15.670;2023-04-25T17:47:20;10.00;;;2.13;;
21941;SDS011;11135;54.192;15.670;2023-04-25T17:50:26;8.95;;;2.13;;
21941;SDS011;11135;54.192;15.670;2023-04-25T17:53:40;7.07;;;2.10;;
21941;SDS011;11135;54.192;15.670;2023-04-25T17:56:49;9.85;;;2.13;;
21941;SDS011;11135;54.192;15.670;2023-04-25T17:59:55;9.82;;;2.75;;
21941;SDS011;11135;54.192;15.670;2023-04-25T18:03:01;10.10;;;1.83;;
21941;SDS011;11135;54.192;15.670;2023-04-25T18:06:08;7.28;;;2.13;;
21941;SDS011;11135;54.192;15.670;2023-04-25T18:09:19;9.60;;;2.08;;
21941;SDS011;11135;54.192;15.670;2023-04-25T18:12:31;12.35;;;2.17;;
21941;SDS011;11135;54.192;15.670;2023-04-25T18:15:38;7.47;;;1.55;;
21941;SDS011;11135;54.192;15.670;2023-04-25T18:18:43;8.77;;;1.70;;
21941;SDS011;11135;54.192;15.670;2023-04-25T18:21:55;7.97;;;1.98;;
21941;SDS011;11135;54.192;15.670;2023-04-25T18:25:00;10.00;;;2.20;;
21941;SDS011;11135;54.192;15.670;2023-04-25T18:28:12;10.45;;;2.20;;
21941;SDS011;11135;54.192;15.670;2023-04-25T18:31:25;7.45;;;1.95;;
21941;SDS011;11135;54.192;15.670;2023-04-25T18:34:38;8.05;;;1.67;;
21941;SDS011;11135;54.192;15.670;2023-04-25T18:37:49;4.57;;;1.40;;
21941;SDS011;11135;54.192;15.670;2023-04-25T18:40:57;5.57;;;1.30;;
21941;SDS011;11135;54.192;15.670;2023-04-25T18:44:25;14.63;;;3.63;;
21941;SDS011;11135;54.192;15.670;2023-04-25T18:47:33;6.70;;;1.73;;
21941;SDS011;11135;54.192;15.670;2023-04-25T18:50:38;7.78;;;2.83;;
21941;SDS011;11135;54.192;15.670;2023-04-25T18:53:45;8.32;;;2.40;;
21941;SDS011;11135;54.192;15.670;2023-04-25T18:56:50;7.55;;;1.52;;
21941;SDS011;11135;54.192;15.670;2023-04-25T19:00:04;9.68;;;2.05;;
21941;SDS011;11135;54.192;15.670;2023-04-25T19:03:09;8.88;;;1.90;;
21941;SDS011;11135;54.192;15.670;2023-04-25T19:06:15;7.60;;;1.80;;
21941;SDS011;11135;54.192;15.670;2023-04-25T19:09:20;11.60;;;2.70;;
21941;SDS011;11135;54.192;15.670;2023-04-25T19:12:27;10.93;;;2.47;;
21941;SDS011;11135;54.192;15.670;2023-04-25T19:15:37;9.57;;;2.55;;
21941;SDS011;11135;54.192;15.670;2023-04-25T19:18:43;10.63;;;2.70;;
21941;SDS011;11135;54.192;15.670;2023-04-25T19:21:49;11.93;;;3.05;;
21941;SDS011;11135;54.192;15.670;2023-04-25T19:24:54;10.45;;;2.80;;